KDVT

Phoenix Deer Valley Airport

Phoenix, Arizona, USA
METAR KDVT 221753Z 36013KT 10SM CLR 13/M06 A3010 RMK AO2 SLP186 T01331056 10133 20083 53021
Observed Flight Rules
Jan-22 @ 17:53 UTC (59 minutes ago) Visual Flight Rules
Wind Visibility Clouds
360° at 13 knots 10 miles
  • Clear skies
Temperatures Readings
Current 13°C / 55°F
Dewpoint -6°C / 21°F
Humidity 26%
Altimeter 30.1" Hg
Pressure 1018.6 hPa
Elevation 443
METAR KDVT 221753Z 36013KT 10SM CLR 13/M06 A3010 RMK AO2 SLP186 T01331056 10133 20083 53021
Observed Flight Rules
Jan-22 @ 17:53 UTC
(59 minutes ago)
VFR
Wind Visibility
360° at 13 knots 10 miles
Clouds
  • Clear skies
Temperature Dewpoint
13°C / 55°F -6°C / 21°F
Humidity Altimeter Pressure
26% 30.1" Hg 1018.6 hPa